Flight Track Log - Related Links

Times and Time Zones

All times are in EDT time to prevent confusion due to time zone crossing. See the AWE1940 flight status page for this flight to view local times or setup timezone preferences in your user account.

Time Position Orientation Groundspeed Altitude Reporting Facility
EDT Latitude Longitude Course Direction KTS MPH feet Rate Location/Type
Sun 06:40:05 PM 29.9572 -95.3392 108° East 177 204 900  Level Houston Center
Sun 06:41:19 PM 29.9353 -95.2622 108° East 246 283 3,200 1,953 Climbing Houston Center
Sun 06:42:14 PM 29.9367 -95.1850 89° East 263 303 5,100 1,561 Climbing Houston Center
Sun 06:43:22 PM 29.9400 -95.0858 88° East 271 312 6,400 1,795 Climbing Houston Center
Sun 06:44:21 PM 29.9306 -95.0014 97° East 277 319 8,900 2,231 Climbing Houston Center
Sun 06:45:23 PM 29.9225 -94.9081 96° East 286 329 10,900 1,659 Climbing Houston Center
Sun 06:46:24 PM 29.9108 -94.7889 96° East 337 388 12,300 1,659 Climbing Houston Center
Sun 06:47:26 PM 29.8989 -94.6739 97° East 380 437 14,300 1,984 Climbing Houston Center
Sun 06:48:28 PM 29.8861 -94.5494 97° East 389 448 16,400 1,790 Climbing Houston Center
Sun 06:49:30 PM 29.8739 -94.4217 96° East 395 455 18,000 1,610 Climbing Houston Center
Sun 06:50:31 PM 29.8775 -94.2894 88° East 414 476 19,700 1,512 Climbing Houston Center
Sun 06:51:33 PM 29.9111 -94.1550 74° East 424 488 21,100 1,452 Climbing Houston Center
Sun 06:52:35 PM 29.9447 -94.0158 74° East 440 506 22,700 1,512 Climbing Houston Center
Sun 06:53:36 PM 29.9839 -93.8550 74° East 445 512 24,200 1,268 Climbing Houston Center
Sun 06:54:38 PM 30.0175 -93.7131 75° East 460 529 25,300 1,161 Climbing Houston Center
Sun 06:55:40 PM 30.0503 -93.5706 75° East 466 536 26,600 1,415 Climbing Houston Center
Sun 06:56:41 PM 30.0822 -93.4303 75° East 461 531 28,200 1,366 Climbing Houston Center
Sun 06:57:43 PM 30.1158 -93.2892 75° East 463 533 29,400 968 Climbing Houston Center
Sun 06:58:45 PM 30.1558 -93.1175 75° East 466 536 30,200 780 Climbing Houston Center
Sun 06:59:46 PM 30.1942 -92.9719 73° East 476 548 31,000 390 Climbing Houston Center
Sun 07:00:48 PM 30.2553 -92.8375 62° Northeast 474 545 31,000  Level Houston Center
Sun 07:01:50 PM 30.3156 -92.7033 62° Northeast 475 547 31,000  Level Houston Center
Sun 07:02:52 PM 30.3756 -92.5678 63° Northeast 474 545 31,000  Level Houston Center
Sun 07:03:54 PM 30.4358 -92.4325 63° Northeast 475 547 31,000  Level Houston Center
Sun 07:04:55 PM 30.5019 -92.2794 63° Northeast 477 549 31,000  Level Houston Center
Sun 07:05:57 PM 30.5628 -92.1444 62° Northeast 476 548 31,000  Level Houston Center
Sun 07:06:59 PM 30.6222 -92.0081 63° Northeast 477 549 31,000  Level Houston Center
Sun 07:08:01 PM 30.6958 -91.8419 63° Northeast 484 557 31,000  Level Houston Center
Sun 07:09:03 PM 30.7578 -91.7042 62° Northeast 484 557 31,000  Level Houston Center
Sun 07:10:04 PM 30.8175 -91.5647 63° Northeast 485 558 31,000  Level Houston Center
Sun 07:11:06 PM 30.8781 -91.4253 63° Northeast 485 558 31,000  Level Houston Center
Sun 07:12:08 PM 30.9392 -91.2858 63° Northeast 485 558 31,000  Level Houston Center
Sun 07:13:10 PM 30.9989 -91.1467 63° Northeast 485 558 31,000  Level Houston Center
Sun 07:14:12 PM 31.0700 -90.9797 64° Northeast 485 558 31,000  Level Houston Center
Sun 07:15:14 PM 31.1306 -90.8378 63° Northeast 486 559 31,000  Level Houston Center
Sun 07:16:15 PM 31.1928 -90.6950 63° Northeast 489 563 31,000  Level Houston Center
Sun 07:17:17 PM 31.2528 -90.5525 64° Northeast 489 563 31,000  Level Houston Center
Sun 07:18:19 PM 31.3119 -90.4097 64° Northeast 488 562 31,000  Level Houston Center
Sun 07:19:21 PM 31.3711 -90.2683 64° Northeast 485 558 31,000  Level Houston Center
Sun 07:20:23 PM 31.4311 -90.1261 64° Northeast 485 558 31,000  Level Houston Center
Sun 07:21:25 PM 31.4897 -89.9850 64° Northeast 481 554 31,000  Level Houston Center
Sun 07:22:27 PM 31.5611 -89.8144 64° Northeast 485 558 31,000 -48 Level Houston Center
Sun 07:23:29 PM 31.6203 -89.6722 64° Northeast 485 558 30,900 -976 Descending Houston Center
Sun 07:24:30 PM 31.6836 -89.5194 64° Northeast 488 562 29,000 -927 Descending Houston Center
Sun 07:25:32 PM 31.7433 -89.3733 64° Northeast 493 567 29,000  Level Houston Center
Sun 07:26:34 PM 31.8044 -89.2275 64° Northeast 496 571 29,000  Level Houston Center
Sun 07:27:36 PM 31.8636 -89.0803 65° Northeast 498 573 29,000  Level Houston Center
Sun 07:28:38 PM 31.9233 -88.9322 65° Northeast 500 575 29,000  Level Houston Center
Sun 07:29:40 PM 31.9828 -88.7828 65° Northeast 505 581 29,000  Level Houston Center
Sun 07:30:42 PM 32.0431 -88.6358 64° Northeast 500 575 29,000  Level Houston Center
Sun 07:31:44 PM 32.1133 -88.4564 65° Northeast 502 578 29,000  Level Houston Center
Sun 07:32:36 PM 32.1667 -88.3325 63° Northeast 508 585 29,000 -536 Level Atlanta Center
Sun 07:33:36 PM 32.2236 -88.1906 65° Northeast 500 575 28,000 -1,000 Descending Atlanta Center
Sun 07:34:36 PM 32.2806 -88.0481 65° Northeast 495 570 27,000 -500 Descending Atlanta Center
Sun 07:35:36 PM 32.3375 -87.9008 65° Northeast 490 564 27,000  Level Atlanta Center
Sun 07:36:36 PM 32.3939 -87.7606 65° Northeast 485 558 27,000  Level Atlanta Center
Sun 07:37:36 PM 32.4525 -87.6128 65° Northeast 478 550 27,000  Level Atlanta Center
Sun 07:38:36 PM 32.4981 -87.4792 68° East 478 550 27,000  Level Atlanta Center
Sun 07:39:36 PM 32.5744 -87.3542 54° Northeast 464 534 27,000  Level Atlanta Center
Sun 07:40:36 PM 32.6569 -87.2411 49° Northeast 464 534 27,000  Level Atlanta Center
Sun 07:41:36 PM 32.7453 -87.1258 48° Northeast 459 528 27,000  Level Atlanta Center
Sun 07:42:36 PM 32.8339 -87.0078 48° Northeast 464 534 27,000  Level Atlanta Center
Sun 07:43:36 PM 32.9244 -86.8847 49° Northeast 476 548 27,000  Level Atlanta Center
Sun 07:44:36 PM 33.0131 -86.7514 52° Northeast 481 554 27,000  Level Atlanta Center
Sun 07:45:36 PM 33.0686 -86.5969 67° East 474 545 27,000  Level Atlanta Center
Sun 07:46:36 PM 33.1111 -86.4444 72° East 484 557 27,000  Level Atlanta Center
Sun 07:47:36 PM 33.1517 -86.2892 73° East 484 557 27,000  Level Atlanta Center
Sun 07:48:36 PM 33.1919 -86.1339 73° East 484 557 27,000  Level Atlanta Center
Sun 07:49:36 PM 33.2322 -85.9733 73° East 489 563 27,000  Level Atlanta Center
Sun 07:50:36 PM 33.2722 -85.8153 73° East 499 574 27,000 600 Level Atlanta Center
Sun 07:51:36 PM 33.3161 -85.6622 71° East 499 574 28,200 1,000 Climbing Atlanta Center
Sun 07:52:36 PM 33.3533 -85.5286 72° East 471 542 29,000 400 Climbing Atlanta Center
Sun 07:53:36 PM 33.3947 -85.3600 74° East 476 548 29,000  Level Atlanta Center
Sun 07:54:36 PM 33.4361 -85.1989 73° East 489 563 29,000  Level Atlanta Center
Sun 07:55:36 PM 33.4750 -85.0425 73° East 500 575 29,000  Level Atlanta Center
Sun 07:56:36 PM 33.5158 -84.8833 73° East 495 570 29,000  Level Atlanta Center
Sun 07:57:36 PM 33.5564 -84.7244 73° East 495 570 29,000  Level Atlanta Center
Sun 07:58:36 PM 33.5928 -84.5675 74° East 495 570 29,000  Level Atlanta Center
Sun 07:59:36 PM 33.6331 -84.4131 73° East 489 563 29,000  Level Atlanta Center
Sun 08:00:36 PM 33.6750 -84.2558 72° East 489 563 29,000  Level Atlanta Center
Sun 08:01:36 PM 33.7211 -84.0961 71° East 495 570 29,000  Level Atlanta Center
Sun 08:02:36 PM 33.7650 -83.9439 71° East 495 570 29,000  Level Atlanta Center
Sun 08:03:36 PM 33.8106 -83.7864 71° East 489 563 29,000  Level Atlanta Center
Sun 08:04:36 PM 33.8939 -83.6583 52° Northeast 477 549 29,000  Level Atlanta Center
Sun 08:05:36 PM 33.9914 -83.5328 47° Northeast 492 566 29,000  Level Atlanta Center
Sun 08:06:36 PM 34.1036 -83.4292 37° Northeast 505 581 29,000  Level Atlanta Center
Sun 08:07:36 PM 34.2158 -83.3253 37° Northeast 505 581 29,000  Level Atlanta Center
Sun 08:08:36 PM 34.3300 -83.2239 36° Northeast 505 581 29,000  Level Atlanta Center
Sun 08:09:36 PM 34.4442 -83.1169 38° Northeast 505 581 29,000  Level Atlanta Center
Sun 08:10:36 PM 34.5436 -83.0250 37° Northeast 511 588 29,000 -250 Level Atlanta Center
Sun 08:11:36 PM 34.6697 -82.9072 38° Northeast 510 587 28,500 -700 Descending Atlanta Center
Sun 08:12:36 PM 34.7519 -82.7672 54° Northeast 492 566 27,600 -750 Descending Atlanta Center
Sun 08:13:36 PM 34.7753 -82.6075 80° East 478 550 27,000 -1,700 Descending Atlanta Center
Sun 08:14:36 PM 34.7689 -82.4408 93° East 463 533 24,200 -1,500 Descending Atlanta Center
Sun 08:15:36 PM 34.7625 -82.2739 93° East 479 551 24,000 -150 Descending Atlanta Center
Sun 08:16:36 PM 34.7558 -82.1147 93° East 479 551 23,900 -1,550 Descending Atlanta Center
Sun 08:17:36 PM 34.7081 -81.9972 116° Southeast 404 465 20,900 -3,050 Descending Atlanta Center
Sun 08:18:36 PM 34.7036 -81.8608 92° East 404 465 17,800 -2,300 Descending Atlanta Center
Sun 08:19:36 PM 34.7142 -81.7469 84° East 390 449 16,300 -1,950 Descending Atlanta Center
Sun 08:20:36 PM 34.7244 -81.6278 84° East 372 428 13,900 -2,283 Descending Atlanta Center
Sun 08:21:29 PM 34.7494 -81.5208 74° East 332 382 12,000 -950 Descending Atlanta Center
Sun 08:22:36 PM 34.8122 -81.4381 47° Northeast 316 364 12,000 -672 Level Atlanta Center
Sun 08:23:25 PM 34.8692 -81.3653 46° Northeast 330 380 10,700 -1,527 Descending Atlanta Center
Sun 08:24:26 PM 34.9342 -81.2847 45° Northeast 310 357 9,200 -836 Descending Atlanta Center
Sun 08:25:27 PM 34.9908 -81.2094 47° Northeast 301 346 9,000 -92 Descending Atlanta Center
Sun 08:26:36 PM 35.0578 -81.1258 46° Northeast 301 346 9,000  Level Atlanta Center
Sun 08:27:29 PM 35.1147 -81.0681 40° Northeast 309 356 9,000 -220 Level Atlanta Center
Sun 08:28:25 PM 35.1878 -81.0681 360° North 264 304 8,600 -1,134 Descending Atlanta Center
Sun 08:29:36 PM 35.2694 -81.0778 354° North 255 293 6,600 -1,522 Descending Atlanta Center
Sun 08:30:39 PM 35.3364 -81.0831 356° North 227 261 5,200 -774 Descending Atlanta Center
Sun 08:31:40 PM 35.3992 -81.0883 356° North 218 251 5,000 -99 Descending Atlanta Center
Sun 08:32:40 PM 35.4486 -81.0661 20° North 227 261 5,000 -248 Level Atlanta Center
Sun 08:33:41 PM 35.4283 -81.0033 112° Southeast 201 231 4,500 -585 Descending Atlanta Center
Sun 08:34:43 PM 35.3819 -80.9844 162° South 178 205 3,800 -872 Descending Atlanta Center
Sun 08:35:38 PM 35.3358 -80.9811 177° South 176 203 2,800 -931 Descending Atlanta Center
Sun 08:36:39 PM 35.2919 -80.9750 174° South 153 176 2,000 -787 Descending Atlanta Center
Sun 08:37:40 PM 35.2503 -80.9717 176° South 149 171 1,200 -787 Descending Atlanta Center
Sun 08:39:00 PM 35.2137 -80.9491 158° South  Level Estimated

Login

Don't have an account? Register now (free) for customized features, flight alerts, and more!